createdAt,value
2023-03-22T00:00:42.635Z,98.69
2023-03-22T00:01:42.612Z,98.84
2023-03-22T00:02:42.694Z,98.69
2023-03-22T00:03:42.618Z,98.49
2023-03-22T00:04:42.600Z,98.84
2023-03-22T00:05:42.580Z,98.12
2023-03-22T00:06:42.559Z,98.22
2023-03-22T00:07:43.570Z,98.38
2023-03-22T00:08:42.542Z,98.33
2023-03-22T00:09:42.553Z,97.45
2023-03-22T00:10:42.520Z,97.30
2023-03-22T00:11:42.515Z,96.93
2023-03-22T00:12:42.505Z,96.83
2023-03-22T00:13:42.497Z,96.58
2023-03-22T00:14:42.494Z,97.34
2023-03-22T00:15:42.531Z,97.44
2023-03-22T00:16:42.482Z,97.34
2023-03-22T00:17:42.463Z,97.30
2023-03-22T00:18:42.462Z,96.99
2023-03-22T00:19:42.473Z,97.14
2023-03-22T00:20:42.431Z,97.44
2023-03-22T00:21:42.421Z,97.34
2023-03-22T00:22:42.418Z,97.14
2023-03-22T00:23:42.401Z,97.24
2023-03-22T00:24:42.403Z,97.03
2023-03-22T00:25:42.386Z,97.34
2023-03-22T00:26:42.373Z,97.34
2023-03-22T00:27:42.409Z,97.34
2023-03-22T00:28:42.349Z,96.52
2023-03-22T00:29:42.360Z,96.31
2023-03-22T00:30:42.337Z,96.93
2023-03-22T00:31:42.354Z,96.83
2023-03-22T00:32:42.327Z,97.34
2023-03-22T00:33:42.327Z,96.42
2023-03-22T00:34:42.320Z,96.46
2023-03-22T00:35:42.309Z,96.97
2023-03-22T00:36:42.278Z,97.08
2023-03-22T00:37:42.271Z,97.08
2023-03-22T00:38:44.448Z,97.28
2023-03-22T00:39:43.269Z,97.24
2023-03-22T00:40:42.247Z,96.93
2023-03-22T00:41:42.237Z,96.83
2023-03-22T00:42:42.232Z,97.28
2023-03-22T00:43:42.247Z,97.18
2023-03-22T00:44:42.216Z,97.34
2023-03-22T00:45:42.192Z,96.62
2023-03-22T00:46:42.187Z,96.93
2023-03-22T00:47:42.237Z,97.34
2023-03-22T00:48:42.188Z,96.93
2023-03-22T00:49:42.176Z,96.93
2023-03-22T00:50:42.151Z,97.14
2023-03-22T00:51:42.148Z,96.93
2023-03-22T00:52:42.155Z,96.62
2023-03-22T00:53:43.424Z,96.42
2023-03-22T00:54:43.124Z,96.56
2023-03-22T00:55:42.109Z,95.90
2023-03-22T00:56:42.114Z,96.00
2023-03-22T00:57:42.086Z,95.80
2023-03-22T00:58:42.115Z,95.74
2023-03-22T00:59:42.212Z,95.90
2023-03-22T01:00:42.453Z,95.95
2023-03-22T01:01:42.047Z,95.80
2023-03-22T01:02:42.043Z,96.05
2023-03-22T01:03:42.126Z,96.46
2023-03-22T01:04:42.044Z,96.46
2023-03-22T01:05:42.005Z,96.36
2023-03-22T01:06:42.009Z,96.21
2023-03-22T01:07:41.989Z,95.64
2023-03-22T01:08:41.990Z,96.46
2023-03-22T01:09:41.965Z,95.95
2023-03-22T01:10:42.067Z,96.42
2023-03-22T01:11:41.946Z,95.70
2023-03-22T01:12:41.942Z,95.95
2023-03-22T01:13:42.054Z,95.70
2023-03-22T01:14:41.921Z,96.00
2023-03-22T01:15:41.920Z,95.84
2023-03-22T01:16:41.986Z,96.15
2023-03-22T01:17:41.894Z,96.21
2023-03-22T01:18:41.876Z,95.84
2023-03-22T01:19:41.867Z,95.74
2023-03-22T01:20:42.055Z,96.36
2023-03-22T01:21:41.848Z,95.84
2023-03-22T01:22:41.846Z,96.05
2023-03-22T01:23:41.842Z,96.15
2023-03-22T01:24:41.823Z,95.84
2023-03-22T01:25:41.880Z,96.56
2023-03-22T01:26:41.802Z,96.25
2023-03-22T01:27:41.787Z,96.46
2023-03-22T01:28:41.776Z,96.46
2023-03-22T01:29:41.770Z,96.36
2023-03-22T01:30:42.286Z,96.36
2023-03-22T01:31:41.749Z,95.84
2023-03-22T01:32:41.737Z,95.84
2023-03-22T01:33:41.725Z,96.05
2023-03-22T01:34:41.748Z,96.46
2023-03-22T01:35:41.738Z,95.95
2023-03-22T01:36:41.703Z,96.46
2023-03-22T01:37:41.698Z,96.15
2023-03-22T01:38:41.708Z,96.56
2023-03-22T01:39:41.673Z,96.56
2023-03-22T01:40:42.103Z,96.56
2023-03-22T01:41:41.662Z,96.15
2023-03-22T01:42:41.643Z,96.46
2023-03-22T01:43:41.634Z,96.36
2023-03-22T01:44:41.622Z,96.36
2023-03-22T01:45:41.628Z,96.25
2023-03-22T01:46:41.688Z,96.25
2023-03-22T01:47:41.628Z,96.21
2023-03-22T01:48:41.633Z,96.56
2023-03-22T01:49:41.579Z,96.46
2023-03-22T01:50:41.858Z,96.25
2023-03-22T01:51:42.752Z,96.72
2023-03-22T01:52:42.604Z,96.36
2023-03-22T01:53:41.553Z,96.21
2023-03-22T01:54:41.540Z,96.31
2023-03-22T01:55:41.553Z,96.31
2023-03-22T01:56:41.541Z,96.46
2023-03-22T01:57:41.508Z,96.21
2023-03-22T01:58:41.499Z,95.95
2023-03-22T01:59:41.491Z,95.74
2023-03-22T02:00:41.646Z,95.84
2023-03-22T02:01:41.558Z,96.05
2023-03-22T02:02:41.490Z,95.84
2023-03-22T02:03:41.447Z,96.15
2023-03-22T02:04:41.438Z,95.74
2023-03-22T02:05:41.443Z,95.84
2023-03-22T02:06:41.418Z,95.95
2023-03-22T02:07:41.415Z,96.15
2023-03-22T02:08:41.404Z,96.56
2023-03-22T02:09:41.395Z,95.53
2023-03-22T02:10:41.529Z,95.64
2023-03-22T02:11:41.378Z,96.30
2023-03-22T02:12:41.369Z,95.78
2023-03-22T02:13:41.362Z,95.17
2023-03-22T02:14:41.348Z,95.89
2023-03-22T02:15:41.370Z,95.48
2023-03-22T02:16:41.330Z,95.58
2023-03-22T02:17:41.324Z,95.68
2023-03-22T02:18:41.309Z,95.58
2023-03-22T02:19:41.308Z,96.30
2023-03-22T02:20:41.704Z,96.20
2023-03-22T02:21:41.284Z,96.20
2023-03-22T02:22:41.274Z,96.20
2023-03-22T02:23:41.260Z,96.20
2023-03-22T02:24:43.896Z,95.99
2023-03-22T02:25:41.258Z,96.09
2023-03-22T02:26:41.237Z,95.99
2023-03-22T02:27:41.229Z,96.20
2023-03-22T02:28:41.226Z,96.30
2023-03-22T02:29:41.211Z,96.09
2023-03-22T02:30:41.460Z,95.78
2023-03-22T02:31:41.207Z,95.78
2023-03-22T02:32:41.192Z,95.99
2023-03-22T02:33:41.727Z,95.93
2023-03-22T02:34:42.206Z,95.93
2023-03-22T02:35:41.223Z,95.89
2023-03-22T02:36:41.154Z,95.93
2023-03-22T02:37:41.145Z,96.09
2023-03-22T02:38:41.138Z,95.93
2023-03-22T02:39:41.126Z,96.09
2023-03-22T02:40:41.418Z,95.83
2023-03-22T02:41:41.106Z,96.86
2023-03-22T02:42:41.098Z,96.50
2023-03-22T02:43:41.093Z,96.34
2023-03-22T02:44:41.091Z,96.30
2023-03-22T02:45:41.083Z,96.50
2023-03-22T02:46:41.115Z,96.41
2023-03-22T02:47:41.114Z,96.41
2023-03-22T02:48:41.041Z,96.14
2023-03-22T02:49:41.037Z,96.14
2023-03-22T02:50:41.132Z,96.45
2023-03-22T02:51:41.015Z,96.66
2023-03-22T02:52:41.007Z,96.50
2023-03-22T02:53:40.998Z,96.30
2023-03-22T02:54:43.314Z,96.30
2023-03-22T02:55:40.994Z,96.50
2023-03-22T02:56:40.967Z,96.66
2023-03-22T02:57:40.978Z,96.30
2023-03-22T02:58:41.950Z,96.86
2023-03-22T02:59:40.949Z,97.06
2023-03-22T03:00:41.246Z,96.96
2023-03-22T03:01:40.971Z,97.23
2023-03-22T03:02:40.932Z,96.61
2023-03-22T03:03:40.909Z,96.34
2023-03-22T03:04:40.895Z,97.27
2023-03-22T03:05:40.892Z,96.81
2023-03-22T03:06:40.881Z,96.34
2023-03-22T03:07:40.864Z,96.55
2023-03-22T03:08:40.849Z,96.61
2023-03-22T03:09:40.847Z,96.50
2023-03-22T03:10:41.426Z,96.66
2023-03-22T03:11:40.827Z,96.41
2023-03-22T03:12:40.819Z,96.41
2023-03-22T03:13:40.811Z,96.30
2023-03-22T03:14:40.797Z,96.34
2023-03-22T03:15:41.810Z,96.20
2023-03-22T03:16:40.813Z,96.41
2023-03-22T03:17:40.776Z,96.34
2023-03-22T03:18:40.765Z,96.71
2023-03-22T03:19:40.756Z,96.50
2023-03-22T03:20:41.017Z,96.34
2023-03-22T03:21:40.740Z,96.61
2023-03-22T03:22:40.763Z,96.30
2023-03-22T03:23:40.720Z,96.41
2023-03-22T03:24:40.788Z,96.20
2023-03-22T03:25:40.707Z,96.41
2023-03-22T03:26:40.689Z,96.61
2023-03-22T03:27:40.690Z,96.45
2023-03-22T03:28:40.670Z,96.20
2023-03-22T03:29:40.662Z,96.03
2023-03-22T03:30:40.920Z,96.34
2023-03-22T03:31:40.648Z,96.55
2023-03-22T03:32:40.634Z,96.55
2023-03-22T03:33:40.622Z,96.34
2023-03-22T03:34:40.618Z,96.24
2023-03-22T03:35:40.643Z,96.86
2023-03-22T03:36:40.604Z,96.66
2023-03-22T03:37:40.588Z,96.45
2023-03-22T03:38:40.584Z,96.81
2023-03-22T03:39:40.575Z,96.50
2023-03-22T03:40:41.004Z,96.34
2023-03-22T03:41:40.552Z,96.50
2023-03-22T03:42:40.545Z,96.45
2023-03-22T03:43:40.538Z,96.66
2023-03-22T03:44:40.523Z,97.48
2023-03-22T03:45:40.548Z,97.27
2023-03-22T03:46:40.507Z,97.73
2023-03-22T03:47:40.561Z,97.42
2023-03-22T03:48:40.492Z,98.10
2023-03-22T03:49:40.486Z,97.68
2023-03-22T03:50:40.733Z,97.83
2023-03-22T03:51:40.458Z,97.78
2023-03-22T03:52:40.469Z,97.27
2023-03-22T03:53:40.445Z,97.68
2023-03-22T03:54:40.432Z,97.38
2023-03-22T03:55:40.436Z,97.38
2023-03-22T03:56:40.439Z,98.03
2023-03-22T03:57:40.410Z,98.03
2023-03-22T03:58:40.402Z,97.63
2023-03-22T03:59:40.415Z,97.63
2023-03-22T04:00:40.591Z,98.55
2023-03-22T04:01:40.370Z,99.11
2023-03-22T04:02:40.432Z,98.24
2023-03-22T04:03:40.355Z,98.60
2023-03-22T04:04:40.374Z,99.73
2023-03-22T04:05:40.346Z,99.43
2023-03-22T04:06:40.330Z,99.99
2023-03-22T04:07:40.329Z,99.79
2023-03-22T04:08:40.313Z,99.52
2023-03-22T04:09:40.338Z,99.69
2023-03-22T04:10:40.562Z,98.97
2023-03-22T04:11:40.287Z,98.76
2023-03-22T04:12:40.286Z,98.80
2023-03-22T04:13:40.262Z,99.38
2023-03-22T04:14:40.257Z,99.69
2023-03-22T04:15:40.262Z,99.38
2023-03-22T04:16:40.258Z,99.48
2023-03-22T04:17:40.244Z,99.38
2023-03-22T04:18:40.225Z,98.76
2023-03-22T04:19:40.218Z,99.02
2023-03-22T04:20:40.621Z,99.07
2023-03-22T04:21:40.202Z,99.17
2023-03-22T04:22:40.193Z,98.41
2023-03-22T04:23:40.185Z,98.92
2023-03-22T04:24:40.176Z,98.92
2023-03-22T04:25:40.180Z,98.50
2023-03-22T04:26:40.156Z,98.82
2023-03-22T04:27:40.148Z,99.02
2023-03-22T04:28:40.144Z,98.92
2023-03-22T04:29:40.129Z,98.77
2023-03-22T04:30:40.431Z,98.82
2023-03-22T04:31:40.119Z,98.46
2023-03-22T04:32:40.143Z,98.92
2023-03-22T04:33:40.115Z,99.02
2023-03-22T04:34:40.089Z,98.97
2023-03-22T04:35:40.129Z,98.67
2023-03-22T04:36:40.074Z,98.88
2023-03-22T04:37:40.062Z,99.13
2023-03-22T04:38:40.059Z,99.39
2023-03-22T04:39:40.051Z,99.08
2023-03-22T04:40:40.287Z,99.90
2023-03-22T04:41:40.024Z,99.99
2023-03-22T04:42:40.054Z,99.95
2023-03-22T04:43:40.009Z,99.99
2023-03-22T04:44:40.002Z,99.99
2023-03-22T04:45:39.995Z,99.99
2023-03-22T04:46:40.044Z,99.54
2023-03-22T04:47:39.981Z,99.90
2023-03-22T04:48:39.990Z,99.90
2023-03-22T04:49:39.950Z,99.39
2023-03-22T04:50:40.279Z,99.76
2023-03-22T04:51:39.948Z,99.96
2023-03-22T04:52:39.936Z,99.29
2023-03-22T04:53:39.920Z,99.99
2023-03-22T04:54:39.909Z,99.99
2023-03-22T04:55:39.901Z,99.99
2023-03-22T04:56:39.899Z,99.99
2023-03-22T04:57:39.880Z,99.99
2023-03-22T04:58:39.875Z,99.99
2023-03-22T04:59:39.865Z,99.99
2023-03-22T05:00:40.063Z,99.99
2023-03-22T05:01:39.901Z,99.99
2023-03-22T05:02:41.230Z,99.99
2023-03-22T05:03:40.830Z,99.99
2023-03-22T05:04:39.824Z,99.99
2023-03-22T05:05:39.841Z,99.99
2023-03-22T05:06:39.811Z,99.99
2023-03-22T05:07:39.799Z,99.99
2023-03-22T05:08:39.785Z,99.99
2023-03-22T05:09:39.775Z,99.90
2023-03-22T05:10:40.041Z,99.96
2023-03-22T05:11:39.768Z,99.99
2023-03-22T05:12:39.762Z,99.99
2023-03-22T05:13:39.742Z,99.49
2023-03-22T05:14:39.778Z,99.18
2023-03-22T05:15:39.793Z,99.39
2023-03-22T05:16:39.727Z,99.39
2023-03-22T05:17:39.691Z,99.99
2023-03-22T05:18:40.699Z,99.90
2023-03-22T05:19:39.688Z,99.39
2023-03-22T05:20:39.927Z,98.67
2023-03-22T05:21:39.687Z,98.50
2023-03-22T05:22:39.659Z,98.92
2023-03-22T05:23:39.648Z,99.33
2023-03-22T05:24:39.644Z,99.39
2023-03-22T05:25:39.637Z,98.82
2023-03-22T05:26:39.635Z,98.50
2023-03-22T05:27:39.629Z,99.08
2023-03-22T05:28:39.608Z,98.88
2023-03-22T05:29:39.604Z,99.23
2023-03-22T05:30:39.860Z,98.88
2023-03-22T05:31:40.602Z,98.30
2023-03-22T05:32:39.571Z,99.02
2023-03-22T05:33:39.568Z,99.08
2023-03-22T05:34:39.554Z,98.57
2023-03-22T05:35:39.565Z,97.85
2023-03-22T05:36:39.547Z,98.61
2023-03-22T05:37:39.529Z,98.92
2023-03-22T05:38:39.522Z,98.46
2023-03-22T05:39:39.510Z,98.36
2023-03-22T05:40:39.707Z,98.46
2023-03-22T05:41:39.505Z,98.25
2023-03-22T05:42:39.485Z,98.25
2023-03-22T05:43:39.478Z,98.77
2023-03-22T05:44:39.470Z,98.25
2023-03-22T05:45:39.461Z,98.67
2023-03-22T05:46:39.545Z,98.57
2023-03-22T05:47:39.476Z,98.67
2023-03-22T05:48:39.430Z,98.67
2023-03-22T05:49:39.430Z,98.05
2023-03-22T05:50:39.618Z,97.64
2023-03-22T05:51:39.424Z,97.53
2023-03-22T05:52:39.405Z,98.05
2023-03-22T05:53:39.394Z,97.33
2023-03-22T05:54:39.390Z,97.43
2023-03-22T05:55:39.373Z,97.28
2023-03-22T05:56:39.373Z,97.53
2023-03-22T05:57:39.355Z,98.41
2023-03-22T05:58:39.346Z,98.71
2023-03-22T05:59:39.334Z,98.71
2023-03-22T06:00:39.588Z,98.50
2023-03-22T06:01:39.366Z,98.36
2023-03-22T06:02:39.362Z,98.88
2023-03-22T06:03:39.296Z,98.30
2023-03-22T06:04:39.289Z,98.57
2023-03-22T06:05:39.277Z,99.23
2023-03-22T06:06:39.288Z,98.82
2023-03-22T06:07:39.257Z,98.92
2023-03-22T06:08:39.262Z,98.92
2023-03-22T06:09:39.246Z,99.02
2023-03-22T06:10:39.570Z,99.23
2023-03-22T06:11:39.237Z,99.43
2023-03-22T06:12:39.231Z,99.99
2023-03-22T06:13:39.211Z,99.99
2023-03-22T06:14:39.192Z,99.99
2023-03-22T06:15:39.186Z,99.99
2023-03-22T06:16:39.231Z,99.70
2023-03-22T06:17:39.170Z,99.33
2023-03-22T06:18:39.169Z,99.33
2023-03-22T06:19:39.161Z,99.99
2023-03-22T06:20:39.367Z,99.99
2023-03-22T06:21:39.144Z,99.95
2023-03-22T06:22:39.122Z,99.99
2023-03-22T06:23:39.117Z,99.99
2023-03-22T06:24:39.102Z,99.99
2023-03-22T06:25:39.094Z,99.99
2023-03-22T06:26:39.095Z,99.80
2023-03-22T06:27:39.081Z,99.60
2023-03-22T06:28:39.078Z,99.99
2023-03-22T06:29:40.059Z,99.70
2023-03-22T06:30:39.499Z,99.99
2023-03-22T06:31:39.043Z,99.76
2023-03-22T06:32:39.036Z,99.99
2023-03-22T06:33:39.017Z,99.99
2023-03-22T06:34:39.006Z,99.99
2023-03-22T06:35:39.047Z,99.99
2023-03-22T06:36:39.001Z,99.99
2023-03-22T06:37:38.985Z,99.99
2023-03-22T06:38:38.969Z,99.99
2023-03-22T06:39:38.964Z,99.40
2023-03-22T06:40:39.251Z,99.99
2023-03-22T06:41:38.949Z,99.91
2023-03-22T06:42:38.931Z,99.99
2023-03-22T06:43:38.924Z,99.99
2023-03-22T06:44:38.916Z,99.87
2023-03-22T06:45:38.946Z,99.60
2023-03-22T06:46:38.902Z,99.99
2023-03-22T06:47:38.889Z,99.81
2023-03-22T06:48:38.877Z,99.99
2023-03-22T06:49:38.867Z,99.99
2023-03-22T06:50:39.314Z,99.87
2023-03-22T06:51:38.857Z,99.99
2023-03-22T06:52:38.845Z,99.99
2023-03-22T06:53:38.825Z,99.99
2023-03-22T06:54:38.817Z,99.91
2023-03-22T06:55:38.828Z,99.99
2023-03-22T06:56:38.810Z,99.66
2023-03-22T06:57:38.785Z,99.87
2023-03-22T06:58:38.785Z,99.99
2023-03-22T06:59:38.770Z,99.99
2023-03-22T07:00:39.227Z,99.87
2023-03-22T07:01:38.776Z,99.77
2023-03-22T07:02:38.739Z,99.87
2023-03-22T07:03:38.724Z,99.99
2023-03-22T07:04:38.781Z,99.99
2023-03-22T07:05:38.705Z,99.99
2023-03-22T07:06:39.719Z,99.41
2023-03-22T07:07:38.693Z,99.99
2023-03-22T07:08:38.689Z,99.99
2023-03-22T07:09:38.678Z,99.41
2023-03-22T07:10:39.024Z,99.26
2023-03-22T07:11:38.676Z,99.99
2023-03-22T07:12:38.651Z,99.77
2023-03-22T07:13:38.636Z,99.93
2023-03-22T07:14:38.628Z,99.62
2023-03-22T07:15:38.708Z,99.88
2023-03-22T07:16:38.609Z,99.47
2023-03-22T07:17:38.610Z,99.88
2023-03-22T07:18:38.589Z,99.98
2023-03-22T07:19:38.584Z,99.73
2023-03-22T07:20:38.991Z,99.63
2023-03-22T07:21:38.567Z,99.21
2023-03-22T07:22:38.575Z,99.38
2023-03-22T07:23:38.549Z,99.07
2023-03-22T07:24:47.306Z,99.17
2023-03-22T07:25:40.525Z,98.55
2023-03-22T07:26:38.515Z,98.14
2023-03-22T07:27:38.514Z,98.25
2023-03-22T07:28:38.505Z,97.63
2023-03-22T07:29:38.492Z,97.99
2023-03-22T07:30:38.886Z,97.12
2023-03-22T07:31:38.474Z,97.63
2023-03-22T07:32:38.535Z,97.73
2023-03-22T07:33:38.461Z,97.58
2023-03-22T07:34:38.440Z,97.28
2023-03-22T07:35:38.538Z,97.79
2023-03-22T07:36:38.424Z,97.17
2023-03-22T07:37:38.434Z,96.97
2023-03-22T07:38:38.408Z,96.66
2023-03-22T07:39:38.405Z,96.56
2023-03-22T07:40:38.643Z,96.35
2023-03-22T07:41:38.378Z,96.77
2023-03-22T07:42:38.380Z,96.82
2023-03-22T07:43:52.416Z,96.56
2023-03-22T07:44:40.350Z,96.51
2023-03-22T07:45:38.348Z,96.77
2023-03-22T07:46:38.399Z,96.66
2023-03-22T07:47:41.329Z,96.62
2023-03-22T07:48:39.308Z,96.62
2023-03-22T07:49:38.305Z,96.56
2023-03-22T07:50:38.564Z,96.62
2023-03-22T07:51:38.287Z,96.72
2023-03-22T07:52:38.296Z,96.41
2023-03-22T07:53:38.263Z,96.04
2023-03-22T07:54:38.287Z,96.82
2023-03-22T07:55:38.247Z,97.54
2023-03-22T07:56:38.240Z,96.62
2023-03-22T07:57:38.234Z,96.35
2023-03-22T07:58:38.272Z,96.82
2023-03-22T07:59:40.123Z,96.41
2023-03-22T08:00:39.417Z,97.33
2023-03-22T08:01:38.255Z,96.82
2023-03-22T08:02:38.219Z,96.72
2023-03-22T08:03:38.174Z,96.35
2023-03-22T08:04:38.160Z,96.25
2023-03-22T08:05:38.690Z,96.31
2023-03-22T08:06:38.139Z,95.59
2023-03-22T08:07:38.148Z,96.00
2023-03-22T08:08:38.134Z,96.10
2023-03-22T08:09:38.113Z,96.00
2023-03-22T08:10:38.407Z,95.79
2023-03-22T08:11:38.091Z,95.07
2023-03-22T08:12:38.094Z,95.14
2023-03-22T08:13:38.120Z,95.03
2023-03-22T08:14:38.061Z,94.62
2023-03-22T08:15:38.301Z,94.21
2023-03-22T08:16:38.069Z,93.80
2023-03-22T08:17:38.052Z,93.80
2023-03-22T08:18:38.022Z,93.29
2023-03-22T08:19:38.007Z,93.70
2023-03-22T08:20:38.576Z,93.70
2023-03-22T08:21:38.027Z,93.70
2023-03-22T08:22:38.306Z,93.55
2023-03-22T08:23:42.090Z,92.74
2023-03-22T08:24:38.960Z,93.49
2023-03-22T08:25:38.949Z,93.25
2023-03-22T08:26:37.943Z,92.32
2023-03-22T08:27:37.954Z,92.63
2023-03-22T08:28:38.929Z,92.12
2023-03-22T08:29:37.919Z,91.36
2023-03-22T08:30:38.173Z,90.95
2023-03-22T08:31:37.906Z,91.36
2023-03-22T08:32:37.894Z,90.13
2023-03-22T08:33:37.917Z,90.70
2023-03-22T08:34:37.862Z,90.60
2023-03-22T08:35:38.318Z,90.70
2023-03-22T08:36:37.851Z,90.09
2023-03-22T08:37:37.856Z,89.98
2023-03-22T08:38:37.824Z,89.78
2023-03-22T08:39:37.826Z,89.98
2023-03-22T08:40:37.870Z,89.98
2023-03-22T08:41:37.794Z,89.37
2023-03-22T08:42:37.791Z,89.27
2023-03-22T08:43:37.866Z,89.06
2023-03-22T08:44:37.791Z,90.34
2023-03-22T08:45:38.350Z,89.78
2023-03-22T08:46:37.743Z,88.65
2023-03-22T08:47:37.754Z,89.27
2023-03-22T08:48:37.728Z,89.37
2023-03-22T08:49:37.724Z,88.56
2023-03-22T08:50:37.708Z,90.09
2023-03-22T08:51:37.695Z,90.70
2023-03-22T08:52:37.696Z,90.39
2023-03-22T08:53:37.722Z,89.94
2023-03-22T08:54:37.673Z,90.45
2023-03-22T08:55:38.041Z,90.36
2023-03-22T08:56:37.675Z,90.36
2023-03-22T08:57:38.887Z,89.64
2023-03-22T08:58:38.640Z,90.56
2023-03-22T08:59:37.632Z,89.89
2023-03-22T09:00:48.113Z,90.60
2023-03-22T09:01:39.766Z,91.11
2023-03-22T09:02:37.602Z,90.50
2023-03-22T09:03:37.625Z,90.60
2023-03-22T09:04:37.626Z,89.98
2023-03-22T09:05:37.986Z,90.19
2023-03-22T09:06:37.560Z,89.98
2023-03-22T09:07:37.568Z,89.68
2023-03-22T09:08:37.548Z,90.56
2023-03-22T09:09:37.520Z,90.45
2023-03-22T09:10:38.511Z,90.31
2023-03-22T09:11:37.525Z,89.90
2023-03-22T09:12:37.505Z,88.98
2023-03-22T09:13:37.546Z,88.53
2023-03-22T09:14:37.501Z,87.82
2023-03-22T09:15:37.487Z,87.92
2023-03-22T09:16:37.492Z,87.98
2023-03-22T09:17:37.452Z,88.49
2023-03-22T09:18:37.462Z,87.61
2023-03-22T09:19:37.490Z,86.85
2023-03-22T09:20:37.477Z,87.20
2023-03-22T09:21:37.418Z,87.82
2023-03-22T09:22:37.456Z,87.92
2023-03-22T09:23:37.428Z,86.69
2023-03-22T09:24:37.380Z,86.29
2023-03-22T09:25:37.359Z,86.90
2023-03-22T09:26:37.351Z,86.08
2023-03-22T09:27:37.352Z,86.96
2023-03-22T09:28:37.391Z,87.57
2023-03-22T09:29:37.314Z,86.35
2023-03-22T09:30:37.336Z,85.69
2023-03-22T09:31:37.355Z,86.61
2023-03-22T09:32:37.299Z,86.41
2023-03-22T09:33:37.292Z,85.89
2023-03-22T09:34:37.274Z,85.18
2023-03-22T09:35:37.296Z,84.88
2023-03-22T09:36:37.247Z,84.77
2023-03-22T09:37:37.245Z,85.28
2023-03-22T09:38:37.233Z,85.79
2023-03-22T09:39:37.208Z,85.83
2023-03-22T09:40:38.210Z,86.20
2023-03-22T09:41:37.199Z,84.61
2023-03-22T09:42:37.222Z,84.81
2023-03-22T09:43:37.231Z,85.53
2023-03-22T09:44:37.170Z,85.69
2023-03-22T09:45:37.182Z,84.57
2023-03-22T09:46:37.297Z,85.08
2023-03-22T09:47:44.293Z,85.18
2023-03-22T09:48:39.137Z,85.04
2023-03-22T09:49:52.276Z,85.21
2023-03-22T09:50:39.115Z,84.63
2023-03-22T09:51:37.101Z,84.39
2023-03-22T09:52:37.100Z,83.78
2023-03-22T09:53:37.084Z,82.86
2023-03-22T09:54:37.077Z,83.06
2023-03-22T09:55:37.481Z,83.06
2023-03-22T09:56:37.049Z,83.23
2023-03-22T09:57:37.061Z,82.41
2023-03-22T09:58:37.106Z,81.80
2023-03-22T09:59:37.021Z,80.98
2023-03-22T10:00:37.147Z,81.59
2023-03-22T10:01:37.169Z,81.66
2023-03-22T10:02:37.061Z,81.04
2023-03-22T10:03:36.992Z,80.84
2023-03-22T10:04:37.052Z,81.01
2023-03-22T10:05:36.978Z,80.70
2023-03-22T10:06:36.948Z,80.70
2023-03-22T10:07:36.936Z,80.91
2023-03-22T10:08:36.941Z,80.36
2023-03-22T10:09:36.915Z,78.73
2023-03-22T10:10:36.897Z,79.30
2023-03-22T10:11:36.898Z,78.59
2023-03-22T10:12:36.881Z,78.49
2023-03-22T10:13:36.891Z,78.69
2023-03-22T10:14:36.863Z,77.61
2023-03-22T10:15:36.855Z,78.32
2023-03-22T10:16:36.869Z,77.91
2023-03-22T10:17:36.829Z,78.42
2023-03-22T10:18:36.836Z,77.95
2023-03-22T10:19:36.810Z,78.73
2023-03-22T10:20:36.797Z,78.63
2023-03-22T10:21:36.784Z,78.87
2023-03-22T10:22:36.852Z,78.22
2023-03-22T10:23:36.773Z,78.73
2023-03-22T10:24:36.762Z,76.62
2023-03-22T10:25:36.755Z,76.93
2023-03-22T10:26:36.766Z,76.83
2023-03-22T10:27:36.724Z,76.59
2023-03-22T10:28:36.725Z,75.78
2023-03-22T10:29:36.739Z,75.57
2023-03-22T10:30:36.704Z,75.67
2023-03-22T10:31:36.751Z,75.06
2023-03-22T10:32:45.211Z,74.96
2023-03-22T10:33:38.667Z,75.33
2023-03-22T10:34:36.646Z,75.33
2023-03-22T10:35:36.686Z,73.91
2023-03-22T10:36:36.632Z,73.80
2023-03-22T10:37:36.626Z,74.08
2023-03-22T10:38:36.619Z,74.69
2023-03-22T10:39:38.505Z,74.69
2023-03-22T10:40:36.584Z,73.77
2023-03-22T10:41:36.618Z,72.86
2023-03-22T10:42:36.570Z,72.75
2023-03-22T10:43:36.574Z,73.26
2023-03-22T10:44:36.553Z,73.60
2023-03-22T10:45:36.546Z,74.32
2023-03-22T10:46:36.585Z,74.18
2023-03-22T10:47:36.517Z,74.58
2023-03-22T10:48:36.567Z,73.97
2023-03-22T10:49:36.504Z,73.91
2023-03-22T10:50:36.536Z,73.71
2023-03-22T10:51:36.529Z,74.32
2023-03-22T10:52:36.471Z,72.69
2023-03-22T10:53:36.476Z,73.30
2023-03-22T10:54:36.470Z,73.33
2023-03-22T10:55:36.449Z,73.64
2023-03-22T10:56:36.437Z,73.84
2023-03-22T10:57:36.444Z,73.84
2023-03-22T10:58:36.427Z,73.77
2023-03-22T10:59:36.419Z,73.57
2023-03-22T11:00:39.863Z,73.23
2023-03-22T11:01:37.640Z,72.62
2023-03-22T11:02:36.544Z,72.58
2023-03-22T11:03:36.424Z,73.36
2023-03-22T11:04:36.368Z,72.86
2023-03-22T11:05:36.347Z,73.26
2023-03-22T11:06:36.331Z,73.02
2023-03-22T11:07:36.322Z,71.70
2023-03-22T11:08:36.405Z,72.11
2023-03-22T11:09:36.298Z,72.52
2023-03-22T11:10:36.333Z,71.16
2023-03-22T11:11:36.311Z,70.25
2023-03-22T11:12:37.797Z,70.35
2023-03-22T11:13:36.273Z,70.14
2023-03-22T11:14:36.271Z,70.25
2023-03-22T11:15:36.244Z,70.65
2023-03-22T11:16:36.272Z,70.55
2023-03-22T11:17:36.229Z,71.03
2023-03-22T11:18:36.224Z,70.86
2023-03-22T11:19:36.199Z,70.11
2023-03-22T11:20:36.233Z,70.11
2023-03-22T11:21:36.176Z,69.50
2023-03-22T11:22:36.166Z,69.30
2023-03-22T11:23:36.163Z,70.79
2023-03-22T11:24:36.151Z,69.57
2023-03-22T11:25:36.143Z,70.08
2023-03-22T11:26:39.041Z,69.47
2023-03-22T11:27:37.138Z,68.55
2023-03-22T11:28:36.122Z,67.74
2023-03-22T11:29:36.094Z,67.47
2023-03-22T11:30:36.086Z,67.30
2023-03-22T11:31:36.152Z,67.50
2023-03-22T11:32:36.139Z,67.30
2023-03-22T11:33:36.080Z,69.23
2023-03-22T11:34:36.047Z,68.72
2023-03-22T11:35:36.060Z,68.72
2023-03-22T11:36:36.018Z,69.02
2023-03-22T11:37:36.022Z,69.02
2023-03-22T11:38:36.009Z,69.02
2023-03-22T11:39:36.001Z,69.60
2023-03-22T11:40:35.980Z,69.30
2023-03-22T11:41:35.967Z,68.96
2023-03-22T11:42:35.960Z,67.94
2023-03-22T11:43:35.984Z,68.25
2023-03-22T11:44:35.951Z,66.93
2023-03-22T11:45:35.945Z,67.33
2023-03-22T11:46:35.976Z,67.24
2023-03-22T11:47:35.956Z,66.83
2023-03-22T11:48:36.089Z,65.61
2023-03-22T11:49:35.884Z,67.33
2023-03-22T11:50:35.873Z,67.54
2023-03-22T11:51:35.869Z,67.84
2023-03-22T11:52:35.853Z,67.16
2023-03-22T11:53:35.858Z,67.33
2023-03-22T11:54:35.833Z,67.06
2023-03-22T11:55:35.836Z,68.66
2023-03-22T11:56:35.815Z,68.86
2023-03-22T11:57:35.798Z,68.96
2023-03-22T11:58:35.799Z,68.05
2023-03-22T11:59:35.786Z,67.50
2023-03-22T12:00:35.767Z,67.41
2023-03-22T12:01:35.765Z,66.90
2023-03-22T12:02:35.889Z,66.05
2023-03-22T12:03:38.837Z,67.20
2023-03-22T12:04:36.758Z,67.07
2023-03-22T12:05:35.718Z,65.34
2023-03-22T12:06:35.823Z,65.75
2023-03-22T12:07:35.694Z,66.16
2023-03-22T12:08:35.692Z,65.85
2023-03-22T12:09:35.683Z,66.56
2023-03-22T12:10:35.667Z,67.75
2023-03-22T12:11:35.658Z,66.94
2023-03-22T12:12:35.643Z,65.79
2023-03-22T12:13:35.664Z,64.17
2023-03-22T12:14:35.632Z,64.98
2023-03-22T12:15:35.641Z,65.08
2023-03-22T12:16:35.629Z,65.45
2023-03-22T12:17:35.661Z,65.42
2023-03-22T12:18:35.602Z,64.01
2023-03-22T12:19:35.578Z,63.20
2023-03-22T12:20:35.576Z,63.20
2023-03-22T12:21:35.562Z,63.83
2023-03-22T12:22:35.552Z,62.79
2023-03-22T12:23:35.557Z,63.20
2023-03-22T12:24:35.532Z,61.78
2023-03-22T12:25:35.540Z,62.56
2023-03-22T12:26:35.514Z,62.35
2023-03-22T12:27:35.501Z,63.17
2023-03-22T12:28:35.520Z,63.07
2023-03-22T12:29:35.490Z,62.15
2023-03-22T12:30:35.483Z,61.04
2023-03-22T12:31:35.500Z,62.26
2023-03-22T12:32:35.488Z,61.37
2023-03-22T12:33:35.450Z,61.98
2023-03-22T12:34:35.450Z,61.98
2023-03-22T12:35:35.552Z,62.05
2023-03-22T12:36:36.414Z,63.07
2023-03-22T12:37:35.409Z,62.46
2023-03-22T12:38:35.516Z,62.53
2023-03-22T12:39:35.385Z,61.35
2023-03-22T12:40:35.378Z,60.53
2023-03-22T12:41:35.376Z,60.43
2023-03-22T12:42:40.641Z,60.03
2023-03-22T12:43:36.363Z,60.26
2023-03-22T12:44:35.341Z,60.28
2023-03-22T12:45:35.327Z,62.01
2023-03-22T12:46:35.345Z,62.45
2023-03-22T12:47:35.334Z,62.17
2023-03-22T12:48:35.349Z,61.76
2023-03-22T12:49:35.290Z,62.07
2023-03-22T12:50:35.279Z,62.51
2023-03-22T12:51:35.271Z,63.39
2023-03-22T12:52:44.806Z,63.39